sensor_id;sensor_type;location;lat;lon;timestamp;P1;durP1;ratioP1;P2;durP2;ratioP2
72771;SDS011;60894;42.544;1.516;2022-08-04T00:01:11;7.33;;;3.30;;
72771;SDS011;60894;42.544;1.516;2022-08-04T00:03:48;7.50;;;3.25;;
72771;SDS011;60894;42.544;1.516;2022-08-04T00:06:22;7.72;;;3.40;;
72771;SDS011;60894;42.544;1.516;2022-08-04T00:08:56;9.40;;;3.28;;
72771;SDS011;60894;42.544;1.516;2022-08-04T00:11:30;6.18;;;3.00;;
72771;SDS011;60894;42.544;1.516;2022-08-04T00:14:01;5.97;;;3.27;;
72771;SDS011;60894;42.544;1.516;2022-08-04T00:16:32;6.35;;;3.10;;
72771;SDS011;60894;42.544;1.516;2022-08-04T00:19:02;5.70;;;3.17;;
72771;SDS011;60894;42.544;1.516;2022-08-04T00:21:30;6.57;;;3.28;;
72771;SDS011;60894;42.544;1.516;2022-08-04T00:24:03;6.85;;;3.60;;
72771;SDS011;60894;42.544;1.516;2022-08-04T00:26:33;7.67;;;3.80;;
72771;SDS011;60894;42.544;1.516;2022-08-04T00:29:00;6.60;;;3.40;;
72771;SDS011;60894;42.544;1.516;2022-08-04T00:31:27;7.82;;;3.42;;
72771;SDS011;60894;42.544;1.516;2022-08-04T00:33:55;5.85;;;3.10;;
72771;SDS011;60894;42.544;1.516;2022-08-04T00:36:22;7.07;;;3.50;;
72771;SDS011;60894;42.544;1.516;2022-08-04T00:38:52;6.30;;;3.20;;
72771;SDS011;60894;42.544;1.516;2022-08-04T00:41:21;6.38;;;3.20;;
72771;SDS011;60894;42.544;1.516;2022-08-04T00:44:08;6.68;;;3.20;;
72771;SDS011;60894;42.544;1.516;2022-08-04T00:46:52;4.97;;;2.70;;
72771;SDS011;60894;42.544;1.516;2022-08-04T00:49:32;6.93;;;3.30;;
72771;SDS011;60894;42.544;1.516;2022-08-04T00:52:17;6.50;;;3.13;;
72771;SDS011;60894;42.544;1.516;2022-08-04T00:58:12;5.32;;;2.80;;
72771;SDS011;60894;42.544;1.516;2022-08-04T01:00:53;6.90;;;3.45;;
72771;SDS011;60894;42.544;1.516;2022-08-04T01:03:28;7.50;;;3.40;;
72771;SDS011;60894;42.544;1.516;2022-08-04T01:06:05;6.33;;;2.70;;
72771;SDS011;60894;42.544;1.516;2022-08-04T01:08:45;6.28;;;3.05;;
72771;SDS011;60894;42.544;1.516;2022-08-04T01:11:24;7.43;;;3.65;;
72771;SDS011;60894;42.544;1.516;2022-08-04T01:16:52;5.38;;;2.92;;
72771;SDS011;60894;42.544;1.516;2022-08-04T01:19:53;6.20;;;3.00;;
72771;SDS011;60894;42.544;1.516;2022-08-04T01:25:52;6.22;;;3.05;;
72771;SDS011;60894;42.544;1.516;2022-08-04T01:31:41;6.93;;;2.90;;
72771;SDS011;60894;42.544;1.516;2022-08-04T01:34:26;5.60;;;2.50;;
72771;SDS011;60894;42.544;1.516;2022-08-04T01:36:57;6.57;;;2.85;;
72771;SDS011;60894;42.544;1.516;2022-08-04T01:39:31;5.78;;;2.80;;
72771;SDS011;60894;42.544;1.516;2022-08-04T01:42:07;6.35;;;2.72;;
72771;SDS011;60894;42.544;1.516;2022-08-04T01:44:36;4.82;;;2.80;;
72771;SDS011;60894;42.544;1.516;2022-08-04T01:47:05;5.27;;;2.47;;
72771;SDS011;60894;42.544;1.516;2022-08-04T01:49:33;4.95;;;2.40;;
72771;SDS011;60894;42.544;1.516;2022-08-04T01:52:02;6.22;;;3.00;;
72771;SDS011;60894;42.544;1.516;2022-08-04T01:54:34;5.80;;;2.70;;
72771;SDS011;60894;42.544;1.516;2022-08-04T01:57:04;5.93;;;2.60;;
72771;SDS011;60894;42.544;1.516;2022-08-04T01:59:32;5.40;;;2.40;;
72771;SDS011;60894;42.544;1.516;2022-08-04T02:02:01;5.03;;;2.50;;
72771;SDS011;60894;42.544;1.516;2022-08-04T02:04:28;5.25;;;2.50;;
72771;SDS011;60894;42.544;1.516;2022-08-04T02:06:58;5.22;;;2.63;;
72771;SDS011;60894;42.544;1.516;2022-08-04T02:09:40;7.10;;;2.55;;
72771;SDS011;60894;42.544;1.516;2022-08-04T02:12:15;7.07;;;2.77;;
72771;SDS011;60894;42.544;1.516;2022-08-04T02:14:49;5.00;;;2.60;;
72771;SDS011;60894;42.544;1.516;2022-08-04T02:17:25;5.28;;;2.38;;
72771;SDS011;60894;42.544;1.516;2022-08-04T02:20:06;5.32;;;2.13;;
72771;SDS011;60894;42.544;1.516;2022-08-04T02:22:38;6.18;;;2.30;;
72771;SDS011;60894;42.544;1.516;2022-08-04T02:25:09;3.97;;;2.20;;
72771;SDS011;60894;42.544;1.516;2022-08-04T02:30:27;4.97;;;2.50;;
72771;SDS011;60894;42.544;1.516;2022-08-04T02:33:01;5.65;;;2.83;;
72771;SDS011;60894;42.544;1.516;2022-08-04T02:35:29;6.05;;;2.63;;
72771;SDS011;60894;42.544;1.516;2022-08-04T02:38:05;6.03;;;2.67;;
72771;SDS011;60894;42.544;1.516;2022-08-04T02:40:38;4.75;;;2.30;;
72771;SDS011;60894;42.544;1.516;2022-08-04T02:43:07;4.93;;;2.40;;
72771;SDS011;60894;42.544;1.516;2022-08-04T02:45:35;4.53;;;2.28;;
72771;SDS011;60894;42.544;1.516;2022-08-04T02:48:04;4.40;;;2.22;;
72771;SDS011;60894;42.544;1.516;2022-08-04T02:50:35;5.17;;;2.60;;
72771;SDS011;60894;42.544;1.516;2022-08-04T02:53:04;5.40;;;2.55;;
72771;SDS011;60894;42.544;1.516;2022-08-04T02:55:34;6.90;;;2.20;;
72771;SDS011;60894;42.544;1.516;2022-08-04T02:58:01;4.32;;;2.15;;
72771;SDS011;60894;42.544;1.516;2022-08-04T03:00:29;4.40;;;2.30;;
72771;SDS011;60894;42.544;1.516;2022-08-04T03:03:01;6.77;;;2.33;;
72771;SDS011;60894;42.544;1.516;2022-08-04T03:05:45;5.30;;;2.70;;
72771;SDS011;60894;42.544;1.516;2022-08-04T03:11:40;4.55;;;2.47;;
72771;SDS011;60894;42.544;1.516;2022-08-04T03:17:30;4.30;;;2.23;;
72771;SDS011;60894;42.544;1.516;2022-08-04T03:20:45;4.80;;;2.20;;
72771;SDS011;60894;42.544;1.516;2022-08-04T03:23:59;5.53;;;2.30;;
72771;SDS011;60894;42.544;1.516;2022-08-04T03:26:49;4.78;;;2.10;;
72771;SDS011;60894;42.544;1.516;2022-08-04T03:29:29;4.75;;;2.20;;
72771;SDS011;60894;42.544;1.516;2022-08-04T03:35:44;4.68;;;2.20;;
72771;SDS011;60894;42.544;1.516;2022-08-04T03:38:47;4.55;;;1.80;;
72771;SDS011;60894;42.544;1.516;2022-08-04T03:41:32;3.88;;;2.05;;
72771;SDS011;60894;42.544;1.516;2022-08-04T03:47:39;4.90;;;2.47;;
72771;SDS011;60894;42.544;1.516;2022-08-04T03:50:37;5.63;;;2.72;;
72771;SDS011;60894;42.544;1.516;2022-08-04T03:53:44;6.32;;;2.78;;
72771;SDS011;60894;42.544;1.516;2022-08-04T04:05:14;4.75;;;2.50;;
72771;SDS011;60894;42.544;1.516;2022-08-04T04:08:19;6.00;;;2.60;;
72771;SDS011;60894;42.544;1.516;2022-08-04T04:14:14;5.90;;;3.10;;
72771;SDS011;60894;42.544;1.516;2022-08-04T04:23:04;5.47;;;2.28;;
72771;SDS011;60894;42.544;1.516;2022-08-04T04:25:44;4.40;;;2.30;;
72771;SDS011;60894;42.544;1.516;2022-08-04T04:28:28;4.53;;;2.13;;
72771;SDS011;60894;42.544;1.516;2022-08-04T04:31:15;4.67;;;2.40;;
72771;SDS011;60894;42.544;1.516;2022-08-04T04:33:53;3.58;;;1.88;;
72771;SDS011;60894;42.544;1.516;2022-08-04T04:36:33;3.80;;;1.90;;
72771;SDS011;60894;42.544;1.516;2022-08-04T04:39:12;5.07;;;2.30;;
72771;SDS011;60894;42.544;1.516;2022-08-04T04:41:55;4.13;;;1.90;;
72771;SDS011;60894;42.544;1.516;2022-08-04T04:44:50;3.70;;;2.10;;
72771;SDS011;60894;42.544;1.516;2022-08-04T04:47:28;5.32;;;1.90;;
72771;SDS011;60894;42.544;1.516;2022-08-04T04:50:03;4.55;;;2.13;;
72771;SDS011;60894;42.544;1.516;2022-08-04T04:52:40;4.47;;;2.30;;
72771;SDS011;60894;42.544;1.516;2022-08-04T04:55:12;3.83;;;2.00;;
72771;SDS011;60894;42.544;1.516;2022-08-04T04:57:44;4.07;;;2.00;;
72771;SDS011;60894;42.544;1.516;2022-08-04T05:00:15;5.00;;;2.20;;
72771;SDS011;60894;42.544;1.516;2022-08-04T05:05:58;3.92;;;2.20;;
72771;SDS011;60894;42.544;1.516;2022-08-04T05:08:42;4.60;;;2.50;;
72771;SDS011;60894;42.544;1.516;2022-08-04T05:11:24;5.00;;;2.20;;
72771;SDS011;60894;42.544;1.516;2022-08-04T05:14:16;5.65;;;2.83;;
72771;SDS011;60894;42.544;1.516;2022-08-04T05:16:50;4.85;;;2.13;;
72771;SDS011;60894;42.544;1.516;2022-08-04T05:19:24;5.95;;;2.33;;
72771;SDS011;60894;42.544;1.516;2022-08-04T05:22:00;5.68;;;2.20;;
72771;SDS011;60894;42.544;1.516;2022-08-04T05:24:33;4.63;;;2.37;;
72771;SDS011;60894;42.544;1.516;2022-08-04T05:27:07;6.97;;;2.70;;
72771;SDS011;60894;42.544;1.516;2022-08-04T05:29:40;5.60;;;2.65;;
72771;SDS011;60894;42.544;1.516;2022-08-04T05:32:16;5.75;;;2.83;;
72771;SDS011;60894;42.544;1.516;2022-08-04T05:34:52;5.80;;;2.85;;
72771;SDS011;60894;42.544;1.516;2022-08-04T05:37:23;5.63;;;2.80;;
72771;SDS011;60894;42.544;1.516;2022-08-04T05:39:53;4.53;;;2.47;;
72771;SDS011;60894;42.544;1.516;2022-08-04T05:42:23;5.63;;;2.67;;
72771;SDS011;60894;42.544;1.516;2022-08-04T05:44:51;6.07;;;2.65;;
72771;SDS011;60894;42.544;1.516;2022-08-04T05:47:20;4.63;;;2.30;;
72771;SDS011;60894;42.544;1.516;2022-08-04T05:49:48;5.83;;;2.67;;
72771;SDS011;60894;42.544;1.516;2022-08-04T05:52:15;6.80;;;3.38;;
72771;SDS011;60894;42.544;1.516;2022-08-04T05:54:43;6.55;;;3.00;;
72771;SDS011;60894;42.544;1.516;2022-08-04T05:57:11;7.50;;;3.10;;
72771;SDS011;60894;42.544;1.516;2022-08-04T05:59:40;6.50;;;3.10;;
72771;SDS011;60894;42.544;1.516;2022-08-04T06:02:11;5.20;;;2.60;;
72771;SDS011;60894;42.544;1.516;2022-08-04T06:04:41;7.00;;;2.70;;
72771;SDS011;60894;42.544;1.516;2022-08-04T06:07:29;6.93;;;3.22;;
72771;SDS011;60894;42.544;1.516;2022-08-04T06:09:56;6.03;;;2.60;;
72771;SDS011;60894;42.544;1.516;2022-08-04T06:12:25;7.50;;;4.03;;
72771;SDS011;60894;42.544;1.516;2022-08-04T06:14:59;7.57;;;3.77;;
72771;SDS011;60894;42.544;1.516;2022-08-04T06:17:29;9.50;;;3.33;;
72771;SDS011;60894;42.544;1.516;2022-08-04T06:20:00;5.82;;;2.80;;
72771;SDS011;60894;42.544;1.516;2022-08-04T06:22:29;6.00;;;2.67;;
72771;SDS011;60894;42.544;1.516;2022-08-04T06:24:58;7.28;;;3.10;;
72771;SDS011;60894;42.544;1.516;2022-08-04T06:27:28;5.90;;;2.80;;
72771;SDS011;60894;42.544;1.516;2022-08-04T06:29:56;5.97;;;3.08;;
72771;SDS011;60894;42.544;1.516;2022-08-04T06:32:24;7.28;;;3.92;;
72771;SDS011;60894;42.544;1.516;2022-08-04T06:35:02;6.20;;;3.05;;
72771;SDS011;60894;42.544;1.516;2022-08-04T06:37:31;7.53;;;3.05;;
72771;SDS011;60894;42.544;1.516;2022-08-04T06:39:59;5.90;;;3.30;;
72771;SDS011;60894;42.544;1.516;2022-08-04T06:42:28;6.90;;;3.17;;
72771;SDS011;60894;42.544;1.516;2022-08-04T06:44:56;8.25;;;3.63;;
72771;SDS011;60894;42.544;1.516;2022-08-04T06:47:24;7.95;;;2.90;;
72771;SDS011;60894;42.544;1.516;2022-08-04T06:49:52;6.75;;;3.30;;
72771;SDS011;60894;42.544;1.516;2022-08-04T06:52:23;6.03;;;2.97;;
72771;SDS011;60894;42.544;1.516;2022-08-04T06:54:51;6.75;;;3.17;;
72771;SDS011;60894;42.544;1.516;2022-08-04T06:57:21;6.60;;;3.38;;
72771;SDS011;60894;42.544;1.516;2022-08-04T06:59:51;6.43;;;2.85;;
72771;SDS011;60894;42.544;1.516;2022-08-04T07:02:23;8.20;;;3.92;;
72771;SDS011;60894;42.544;1.516;2022-08-04T07:04:52;7.33;;;3.77;;
72771;SDS011;60894;42.544;1.516;2022-08-04T07:07:20;7.13;;;3.95;;
72771;SDS011;60894;42.544;1.516;2022-08-04T07:09:50;6.10;;;3.10;;
72771;SDS011;60894;42.544;1.516;2022-08-04T07:12:17;6.00;;;2.78;;
72771;SDS011;60894;42.544;1.516;2022-08-04T07:14:46;7.20;;;3.35;;
72771;SDS011;60894;42.544;1.516;2022-08-04T07:17:13;6.67;;;3.47;;
72771;SDS011;60894;42.544;1.516;2022-08-04T07:19:41;7.78;;;3.53;;
72771;SDS011;60894;42.544;1.516;2022-08-04T07:22:09;7.45;;;3.00;;
72771;SDS011;60894;42.544;1.516;2022-08-04T07:24:37;6.43;;;3.20;;
72771;SDS011;60894;42.544;1.516;2022-08-04T07:27:08;6.20;;;3.05;;
72771;SDS011;60894;42.544;1.516;2022-08-04T07:29:35;6.47;;;3.07;;
72771;SDS011;60894;42.544;1.516;2022-08-04T07:32:03;7.95;;;3.47;;
72771;SDS011;60894;42.544;1.516;2022-08-04T07:34:31;7.68;;;3.30;;
72771;SDS011;60894;42.544;1.516;2022-08-04T07:36:59;8.48;;;3.10;;
72771;SDS011;60894;42.544;1.516;2022-08-04T07:39:27;6.90;;;3.30;;
72771;SDS011;60894;42.544;1.516;2022-08-04T07:41:57;6.60;;;3.30;;
72771;SDS011;60894;42.544;1.516;2022-08-04T07:44:26;9.35;;;3.40;;
72771;SDS011;60894;42.544;1.516;2022-08-04T07:46:54;8.23;;;4.30;;
72771;SDS011;60894;42.544;1.516;2022-08-04T07:49:21;7.80;;;3.58;;
72771;SDS011;60894;42.544;1.516;2022-08-04T07:51:50;6.63;;;3.50;;
72771;SDS011;60894;42.544;1.516;2022-08-04T07:54:18;8.77;;;3.73;;
72771;SDS011;60894;42.544;1.516;2022-08-04T07:56:47;5.93;;;3.28;;
72771;SDS011;60894;42.544;1.516;2022-08-04T07:59:16;7.88;;;3.50;;
72771;SDS011;60894;42.544;1.516;2022-08-04T08:01:44;7.50;;;3.50;;
72771;SDS011;60894;42.544;1.516;2022-08-04T08:04:12;6.30;;;3.25;;
72771;SDS011;60894;42.544;1.516;2022-08-04T08:06:40;6.53;;;3.40;;
72771;SDS011;60894;42.544;1.516;2022-08-04T08:09:07;9.40;;;3.45;;
72771;SDS011;60894;42.544;1.516;2022-08-04T08:11:35;7.57;;;2.88;;
72771;SDS011;60894;42.544;1.516;2022-08-04T08:14:02;7.00;;;3.50;;
72771;SDS011;60894;42.544;1.516;2022-08-04T08:16:29;7.70;;;3.30;;
72771;SDS011;60894;42.544;1.516;2022-08-04T08:19:00;8.10;;;3.43;;
72771;SDS011;60894;42.544;1.516;2022-08-04T08:21:27;6.75;;;3.42;;
72771;SDS011;60894;42.544;1.516;2022-08-04T08:23:55;6.70;;;3.40;;
72771;SDS011;60894;42.544;1.516;2022-08-04T08:26:22;6.57;;;3.53;;
72771;SDS011;60894;42.544;1.516;2022-08-04T08:28:49;6.32;;;3.10;;
72771;SDS011;60894;42.544;1.516;2022-08-04T08:31:16;7.37;;;3.43;;
72771;SDS011;60894;42.544;1.516;2022-08-04T08:33:43;7.55;;;3.30;;
72771;SDS011;60894;42.544;1.516;2022-08-04T08:36:15;6.75;;;3.33;;
72771;SDS011;60894;42.544;1.516;2022-08-04T08:38:47;6.45;;;3.47;;
72771;SDS011;60894;42.544;1.516;2022-08-04T08:41:37;8.52;;;3.78;;
72771;SDS011;60894;42.544;1.516;2022-08-04T08:44:26;7.43;;;3.77;;
72771;SDS011;60894;42.544;1.516;2022-08-04T08:47:26;6.85;;;3.70;;
72771;SDS011;60894;42.544;1.516;2022-08-04T08:53:11;8.25;;;4.03;;
72771;SDS011;60894;42.544;1.516;2022-08-04T08:55:51;8.38;;;3.75;;
72771;SDS011;60894;42.544;1.516;2022-08-04T08:58:37;8.80;;;4.23;;
72771;SDS011;60894;42.544;1.516;2022-08-04T09:01:15;7.18;;;3.53;;
72771;SDS011;60894;42.544;1.516;2022-08-04T09:07:19;8.02;;;3.72;;
72771;SDS011;60894;42.544;1.516;2022-08-04T09:10:09;6.93;;;3.40;;
72771;SDS011;60894;42.544;1.516;2022-08-04T09:12:44;7.03;;;3.43;;
72771;SDS011;60894;42.544;1.516;2022-08-04T09:15:17;6.88;;;3.60;;
72771;SDS011;60894;42.544;1.516;2022-08-04T09:17:53;5.97;;;3.13;;
72771;SDS011;60894;42.544;1.516;2022-08-04T09:20:29;5.78;;;3.30;;
72771;SDS011;60894;42.544;1.516;2022-08-04T09:23:04;7.70;;;3.47;;
72771;SDS011;60894;42.544;1.516;2022-08-04T09:25:41;9.17;;;4.20;;
72771;SDS011;60894;42.544;1.516;2022-08-04T09:28:18;7.57;;;3.90;;
72771;SDS011;60894;42.544;1.516;2022-08-04T09:30:50;9.38;;;4.75;;
72771;SDS011;60894;42.544;1.516;2022-08-04T09:33:23;12.85;;;5.35;;
72771;SDS011;60894;42.544;1.516;2022-08-04T09:36:09;8.50;;;3.83;;
72771;SDS011;60894;42.544;1.516;2022-08-04T09:38:43;12.47;;;6.93;;
72771;SDS011;60894;42.544;1.516;2022-08-04T09:41:22;7.00;;;3.90;;
72771;SDS011;60894;42.544;1.516;2022-08-04T09:44:00;10.23;;;4.40;;
72771;SDS011;60894;42.544;1.516;2022-08-04T09:46:43;7.82;;;3.65;;
72771;SDS011;60894;42.544;1.516;2022-08-04T09:49:16;6.18;;;3.47;;
72771;SDS011;60894;42.544;1.516;2022-08-04T09:51:48;8.97;;;3.43;;
72771;SDS011;60894;42.544;1.516;2022-08-04T09:54:24;10.82;;;5.88;;
72771;SDS011;60894;42.544;1.516;2022-08-04T09:57:03;7.40;;;3.53;;
72771;SDS011;60894;42.544;1.516;2022-08-04T09:59:40;5.35;;;3.00;;
72771;SDS011;60894;42.544;1.516;2022-08-04T10:02:12;4.78;;;2.88;;
72771;SDS011;60894;42.544;1.516;2022-08-04T10:04:41;5.77;;;2.90;;
72771;SDS011;60894;42.544;1.516;2022-08-04T10:07:18;5.85;;;3.08;;
72771;SDS011;60894;42.544;1.516;2022-08-04T10:10:14;5.35;;;2.72;;
72771;SDS011;60894;42.544;1.516;2022-08-04T10:12:55;6.57;;;3.33;;
72771;SDS011;60894;42.544;1.516;2022-08-04T10:15:35;5.30;;;3.17;;
72771;SDS011;60894;42.544;1.516;2022-08-04T10:18:11;5.67;;;3.10;;
72771;SDS011;60894;42.544;1.516;2022-08-04T10:20:50;5.60;;;3.10;;
72771;SDS011;60894;42.544;1.516;2022-08-04T10:23:35;6.53;;;3.25;;
72771;SDS011;60894;42.544;1.516;2022-08-04T10:26:14;5.40;;;3.17;;
72771;SDS011;60894;42.544;1.516;2022-08-04T10:28:55;6.35;;;3.38;;
72771;SDS011;60894;42.544;1.516;2022-08-04T10:31:29;7.17;;;3.40;;
72771;SDS011;60894;42.544;1.516;2022-08-04T10:34:00;6.60;;;3.20;;
72771;SDS011;60894;42.544;1.516;2022-08-04T10:36:39;6.20;;;3.30;;
72771;SDS011;60894;42.544;1.516;2022-08-04T10:39:15;5.50;;;3.20;;
72771;SDS011;60894;42.544;1.516;2022-08-04T10:41:48;7.20;;;3.33;;
72771;SDS011;60894;42.544;1.516;2022-08-04T10:44:24;5.17;;;3.03;;
72771;SDS011;60894;42.544;1.516;2022-08-04T10:47:00;5.70;;;3.10;;
72771;SDS011;60894;42.544;1.516;2022-08-04T10:49:32;6.25;;;3.28;;
72771;SDS011;60894;42.544;1.516;2022-08-04T10:52:02;5.45;;;3.10;;
72771;SDS011;60894;42.544;1.516;2022-08-04T10:54:36;6.75;;;3.30;;
72771;SDS011;60894;42.544;1.516;2022-08-04T10:57:12;7.00;;;3.80;;
72771;SDS011;60894;42.544;1.516;2022-08-04T10:59:46;6.28;;;3.38;;
72771;SDS011;60894;42.544;1.516;2022-08-04T11:02:23;6.78;;;3.25;;
72771;SDS011;60894;42.544;1.516;2022-08-04T11:04:58;6.07;;;3.83;;
72771;SDS011;60894;42.544;1.516;2022-08-04T11:07:35;7.32;;;3.40;;
72771;SDS011;60894;42.544;1.516;2022-08-04T11:10:05;5.67;;;3.40;;
72771;SDS011;60894;42.544;1.516;2022-08-04T11:12:33;6.65;;;3.55;;
72771;SDS011;60894;42.544;1.516;2022-08-04T11:15:03;6.50;;;3.58;;
72771;SDS011;60894;42.544;1.516;2022-08-04T11:17:35;7.15;;;3.40;;
72771;SDS011;60894;42.544;1.516;2022-08-04T11:20:11;5.63;;;3.45;;
72771;SDS011;60894;42.544;1.516;2022-08-04T11:22:43;6.90;;;3.77;;
72771;SDS011;60894;42.544;1.516;2022-08-04T11:25:16;6.90;;;3.67;;
72771;SDS011;60894;42.544;1.516;2022-08-04T11:27:50;6.07;;;3.58;;
72771;SDS011;60894;42.544;1.516;2022-08-04T11:30:30;6.85;;;3.85;;
72771;SDS011;60894;42.544;1.516;2022-08-04T11:33:04;5.93;;;3.85;;
72771;SDS011;60894;42.544;1.516;2022-08-04T11:35:48;7.20;;;3.83;;
72771;SDS011;60894;42.544;1.516;2022-08-04T11:38:19;5.97;;;3.70;;
72771;SDS011;60894;42.544;1.516;2022-08-04T11:40:51;5.82;;;3.90;;
72771;SDS011;60894;42.544;1.516;2022-08-04T11:43:23;7.20;;;4.15;;
72771;SDS011;60894;42.544;1.516;2022-08-04T11:46:00;7.30;;;3.90;;
72771;SDS011;60894;42.544;1.516;2022-08-04T11:48:34;6.50;;;4.17;;
72771;SDS011;60894;42.544;1.516;2022-08-04T11:51:03;7.77;;;4.40;;
72771;SDS011;60894;42.544;1.516;2022-08-04T11:53:33;6.63;;;4.05;;
72771;SDS011;60894;42.544;1.516;2022-08-04T11:56:05;6.93;;;4.13;;
72771;SDS011;60894;42.544;1.516;2022-08-04T11:58:35;7.40;;;4.13;;
72771;SDS011;60894;42.544;1.516;2022-08-04T12:01:07;7.60;;;4.30;;
72771;SDS011;60894;42.544;1.516;2022-08-04T12:03:44;7.47;;;4.20;;
72771;SDS011;60894;42.544;1.516;2022-08-04T12:06:23;6.05;;;4.18;;
72771;SDS011;60894;42.544;1.516;2022-08-04T12:08:57;8.98;;;4.18;;
72771;SDS011;60894;42.544;1.516;2022-08-04T12:11:34;8.65;;;4.60;;
72771;SDS011;60894;42.544;1.516;2022-08-04T12:14:12;7.28;;;4.32;;
72771;SDS011;60894;42.544;1.516;2022-08-04T12:16:55;8.97;;;4.60;;
72771;SDS011;60894;42.544;1.516;2022-08-04T12:19:28;8.33;;;4.40;;
72771;SDS011;60894;42.544;1.516;2022-08-04T12:21:57;7.53;;;4.70;;
72771;SDS011;60894;42.544;1.516;2022-08-04T12:24:27;7.40;;;4.50;;
72771;SDS011;60894;42.544;1.516;2022-08-04T12:27:01;6.78;;;4.55;;
72771;SDS011;60894;42.544;1.516;2022-08-04T12:29:33;8.73;;;5.00;;
72771;SDS011;60894;42.544;1.516;2022-08-04T12:32:10;7.13;;;4.67;;
72771;SDS011;60894;42.544;1.516;2022-08-04T12:34:46;7.57;;;4.75;;
72771;SDS011;60894;42.544;1.516;2022-08-04T12:37:22;8.95;;;4.93;;
72771;SDS011;60894;42.544;1.516;2022-08-04T12:39:54;8.48;;;5.10;;
72771;SDS011;60894;42.544;1.516;2022-08-04T12:42:28;8.45;;;5.25;;
72771;SDS011;60894;42.544;1.516;2022-08-04T12:45:03;8.50;;;4.47;;
72771;SDS011;60894;42.544;1.516;2022-08-04T12:47:35;9.00;;;4.90;;
72771;SDS011;60894;42.544;1.516;2022-08-04T12:50:04;9.35;;;4.70;;
72771;SDS011;60894;42.544;1.516;2022-08-04T12:52:39;11.50;;;5.25;;
72771;SDS011;60894;42.544;1.516;2022-08-04T12:55:08;7.53;;;4.72;;
72771;SDS011;60894;42.544;1.516;2022-08-04T12:57:35;7.15;;;4.78;;
72771;SDS011;60894;42.544;1.516;2022-08-04T13:00:03;8.07;;;4.87;;
72771;SDS011;60894;42.544;1.516;2022-08-04T13:02:34;9.10;;;5.25;;
72771;SDS011;60894;42.544;1.516;2022-08-04T13:05:08;9.15;;;4.82;;
72771;SDS011;60894;42.544;1.516;2022-08-04T13:07:39;7.72;;;4.80;;
72771;SDS011;60894;42.544;1.516;2022-08-04T13:10:11;6.38;;;4.43;;
72771;SDS011;60894;42.544;1.516;2022-08-04T13:12:39;7.77;;;5.07;;
72771;SDS011;60894;42.544;1.516;2022-08-04T13:15:10;7.43;;;4.63;;
72771;SDS011;60894;42.544;1.516;2022-08-04T13:17:47;11.55;;;5.30;;
72771;SDS011;60894;42.544;1.516;2022-08-04T13:20:16;8.57;;;5.28;;
72771;SDS011;60894;42.544;1.516;2022-08-04T13:22:50;8.60;;;4.95;;
72771;SDS011;60894;42.544;1.516;2022-08-04T13:25:18;7.47;;;5.47;;
72771;SDS011;60894;42.544;1.516;2022-08-04T13:27:45;8.93;;;5.03;;
72771;SDS011;60894;42.544;1.516;2022-08-04T13:30:12;8.45;;;5.00;;
72771;SDS011;60894;42.544;1.516;2022-08-04T13:32:45;8.68;;;5.05;;
72771;SDS011;60894;42.544;1.516;2022-08-04T13:35:13;10.18;;;4.95;;
72771;SDS011;60894;42.544;1.516;2022-08-04T13:37:40;9.40;;;4.63;;
72771;SDS011;60894;42.544;1.516;2022-08-04T13:40:09;9.80;;;5.27;;
72771;SDS011;60894;42.544;1.516;2022-08-04T13:42:37;7.40;;;4.40;;
72771;SDS011;60894;42.544;1.516;2022-08-04T13:45:06;7.40;;;4.68;;
72771;SDS011;60894;42.544;1.516;2022-08-04T13:47:34;9.05;;;4.90;;
72771;SDS011;60894;42.544;1.516;2022-08-04T13:50:06;9.48;;;4.85;;
72771;SDS011;60894;42.544;1.516;2022-08-04T13:52:36;8.40;;;4.43;;
72771;SDS011;60894;42.544;1.516;2022-08-04T13:55:03;7.53;;;4.20;;
72771;SDS011;60894;42.544;1.516;2022-08-04T13:57:32;9.18;;;4.22;;
72771;SDS011;60894;42.544;1.516;2022-08-04T14:00:08;7.13;;;3.80;;
72771;SDS011;60894;42.544;1.516;2022-08-04T14:02:37;8.35;;;4.50;;
72771;SDS011;60894;42.544;1.516;2022-08-04T14:05:12;10.20;;;3.90;;
72771;SDS011;60894;42.544;1.516;2022-08-04T14:07:41;7.13;;;3.90;;
72771;SDS011;60894;42.544;1.516;2022-08-04T14:10:11;7.75;;;4.00;;
72771;SDS011;60894;42.544;1.516;2022-08-04T14:12:46;8.13;;;3.47;;
72771;SDS011;60894;42.544;1.516;2022-08-04T14:18:17;6.25;;;3.40;;
72771;SDS011;60894;42.544;1.516;2022-08-04T14:21:06;7.63;;;3.57;;
72771;SDS011;60894;42.544;1.516;2022-08-04T14:23:43;8.18;;;3.90;;
72771;SDS011;60894;42.544;1.516;2022-08-04T14:26:18;7.22;;;3.42;;
72771;SDS011;60894;42.544;1.516;2022-08-04T14:28:47;8.50;;;3.63;;
72771;SDS011;60894;42.544;1.516;2022-08-04T14:31:15;8.23;;;3.50;;
72771;SDS011;60894;42.544;1.516;2022-08-04T14:33:44;11.00;;;3.70;;
72771;SDS011;60894;42.544;1.516;2022-08-04T14:36:15;10.02;;;3.92;;
72771;SDS011;60894;42.544;1.516;2022-08-04T14:38:48;11.00;;;4.13;;
72771;SDS011;60894;42.544;1.516;2022-08-04T14:41:17;10.10;;;3.70;;
72771;SDS011;60894;42.544;1.516;2022-08-04T14:43:47;11.05;;;3.80;;
72771;SDS011;60894;42.544;1.516;2022-08-04T14:46:16;11.63;;;3.57;;
72771;SDS011;60894;42.544;1.516;2022-08-04T14:48:59;10.82;;;3.47;;
72771;SDS011;60894;42.544;1.516;2022-08-04T14:51:36;11.70;;;3.70;;
72771;SDS011;60894;42.544;1.516;2022-08-04T14:54:05;10.40;;;3.60;;
72771;SDS011;60894;42.544;1.516;2022-08-04T14:56:34;10.95;;;3.80;;
72771;SDS011;60894;42.544;1.516;2022-08-04T14:59:03;13.90;;;3.80;;
72771;SDS011;60894;42.544;1.516;2022-08-04T15:01:32;17.92;;;4.25;;
72771;SDS011;60894;42.544;1.516;2022-08-04T15:04:00;12.27;;;4.38;;
72771;SDS011;60894;42.544;1.516;2022-08-04T15:06:29;12.27;;;4.28;;
72771;SDS011;60894;42.544;1.516;2022-08-04T15:08:59;13.55;;;4.22;;
72771;SDS011;60894;42.544;1.516;2022-08-04T15:11:29;9.57;;;3.93;;
72771;SDS011;60894;42.544;1.516;2022-08-04T15:13:56;12.02;;;3.58;;
72771;SDS011;60894;42.544;1.516;2022-08-04T15:16:24;14.13;;;4.32;;
72771;SDS011;60894;42.544;1.516;2022-08-04T15:18:52;10.57;;;3.53;;
72771;SDS011;60894;42.544;1.516;2022-08-04T15:21:20;12.48;;;4.05;;
72771;SDS011;60894;42.544;1.516;2022-08-04T15:23:47;9.90;;;3.93;;
72771;SDS011;60894;42.544;1.516;2022-08-04T15:26:17;9.85;;;3.95;;
72771;SDS011;60894;42.544;1.516;2022-08-04T15:28:52;11.05;;;3.72;;
72771;SDS011;60894;42.544;1.516;2022-08-04T15:31:22;12.88;;;4.10;;
72771;SDS011;60894;42.544;1.516;2022-08-04T15:33:59;9.38;;;3.97;;
72771;SDS011;60894;42.544;1.516;2022-08-04T15:36:33;7.50;;;3.17;;
72771;SDS011;60894;42.544;1.516;2022-08-04T15:39:10;8.38;;;3.40;;
72771;SDS011;60894;42.544;1.516;2022-08-04T15:45:01;10.20;;;3.80;;
72771;SDS011;60894;42.544;1.516;2022-08-04T15:47:42;9.60;;;3.90;;
72771;SDS011;60894;42.544;1.516;2022-08-04T15:56:44;11.27;;;3.90;;
72771;SDS011;60894;42.544;1.516;2022-08-04T15:59:14;10.25;;;3.47;;
72771;SDS011;60894;42.544;1.516;2022-08-04T16:01:41;9.18;;;3.40;;
72771;SDS011;60894;42.544;1.516;2022-08-04T16:04:22;7.77;;;3.73;;
72771;SDS011;60894;42.544;1.516;2022-08-04T16:06:49;7.25;;;3.28;;
72771;SDS011;60894;42.544;1.516;2022-08-04T16:09:26;12.52;;;3.30;;
72771;SDS011;60894;42.544;1.516;2022-08-04T16:11:53;9.02;;;3.58;;
72771;SDS011;60894;42.544;1.516;2022-08-04T16:14:31;7.63;;;3.28;;
72771;SDS011;60894;42.544;1.516;2022-08-04T16:17:16;12.03;;;3.60;;
72771;SDS011;60894;42.544;1.516;2022-08-04T16:19:45;9.07;;;3.28;;
72771;SDS011;60894;42.544;1.516;2022-08-04T16:22:33;7.53;;;3.38;;
72771;SDS011;60894;42.544;1.516;2022-08-04T16:25:03;9.82;;;3.55;;
72771;SDS011;60894;42.544;1.516;2022-08-04T16:27:38;9.13;;;3.45;;
72771;SDS011;60894;42.544;1.516;2022-08-04T16:30:11;11.23;;;3.40;;
72771;SDS011;60894;42.544;1.516;2022-08-04T16:32:40;7.63;;;3.30;;
72771;SDS011;60894;42.544;1.516;2022-08-04T16:35:22;10.07;;;3.92;;